Time;durP1;ratioP1;P1;durP2;ratioP2;P2;SDS_P1;SDS_P2;PMS_P1;PMS_P2;Temp;Humidity;BMP_temperature;BMP_pressure;BME280_temperature;BME280_humidity;BME280_pressure;Samples;Min_cycle;Max_cycle;Signal;HPM_P1;HPM_P2
2023/10/21 00:01:18;;;;;;;1.63;0.40;;;15.60;57.40;;;;;;20756;6778;117652;-78
2023/10/21 00:03:53;;;;;;;1.13;0.40;;;15.30;58.40;;;;;;20732;6777;118302;-78
2023/10/21 00:06:30;;;;;;;0.40;0.35;;;15.10;58.40;;;;;;20450;6778;310500;-78
2023/10/21 00:09:05;;;;;;;0.60;0.50;;;15.10;58.40;;;;;;20540;6778;279313;-78
2023/10/21 00:11:42;;;;;;;0.60;0.60;;;15.70;57.60;;;;;;20526;6778;278321;-78
2023/10/21 00:14:17;;;;;;;0.60;0.50;;;15.60;57.20;;;;;;20745;6778;117223;-77
2023/10/21 00:16:53;;;;;;;0.47;0.47;;;15.60;57.90;;;;;;20641;6778;118065;-78
2023/10/21 00:19:28;;;;;;;0.60;0.60;;;15.30;58.00;;;;;;20524;6778;276957;-78
2023/10/21 00:22:05;;;;;;;1.00;0.70;;;15.30;58.30;;;;;;20750;6778;117287;-78
2023/10/21 00:24:40;;;;;;;0.65;0.65;;;15.30;58.80;;;;;;20520;6778;306719;-77
2023/10/21 00:27:16;;;;;;;0.77;0.77;;;15.60;57.80;;;;;;20349;6778;301780;-78
2023/10/21 00:29:55;;;;;;;0.73;0.60;;;15.60;57.80;;;;;;20679;6792;117778;-78
2023/10/21 00:32:27;;;;;;;1.90;0.57;;;15.50;58.20;;;;;;20729;6778;118661;-78
2023/10/21 00:35:04;;;;;;;1.08;0.60;;;15.20;59.00;;;;;;20539;6777;277262;-78
2023/10/21 00:37:38;;;;;;;0.60;0.60;;;15.20;58.40;;;;;;20305;6792;279885;-78
2023/10/21 00:40:14;;;;;;;1.52;0.70;;;15.50;57.80;;;;;;20520;6778;340472;-78
2023/10/21 00:42:49;;;;;;;0.70;0.70;;;15.70;57.50;;;;;;20535;6778;277909;-78
2023/10/21 00:45:25;;;;;;;0.60;0.60;;;15.80;57.00;;;;;;20508;6778;276115;-77
2023/10/21 00:48:04;;;;;;;0.70;0.70;;;15.90;56.50;;;;;;20535;6778;305697;-78
2023/10/21 00:50:36;;;;;;;0.50;0.50;;;15.90;56.10;;;;;;20744;6778;117267;-78
2023/10/21 00:53:12;;;;;;;0.60;0.60;;;15.70;56.90;;;;;;20747;6778;117166;-77
2023/10/21 00:55:47;;;;;;;0.50;0.50;;;15.30;58.00;;;;;;20683;6778;117663;-78
2023/10/21 00:58:25;;;;;;;1.15;0.52;;;15.00;59.10;;;;;;20494;6792;303320;-78
2023/10/21 01:00:58;;;;;;;0.60;0.57;;;15.10;58.80;;;;;;20701;6792;116298;-77
2023/10/21 01:03:34;;;;;;;0.70;0.43;;;15.20;59.30;;;;;;20683;6792;117748;-78
2023/10/21 01:06:10;;;;;;;0.62;0.30;;;15.00;59.90;;;;;;20468;6778;281034;-77
2023/10/21 01:08:48;;;;;;;0.77;0.57;;;15.20;59.60;;;;;;20536;6778;311082;-78
2023/10/21 01:11:21;;;;;;;0.80;0.52;;;15.50;58.90;;;;;;20533;6778;304936;-78
2023/10/21 01:13:56;;;;;;;0.70;0.50;;;15.80;58.10;;;;;;20512;6777;306466;-78
2023/10/21 01:16:32;;;;;;;1.40;0.47;;;16.00;57.40;;;;;;20661;6778;117940;-78
2023/10/21 01:19:07;;;;;;;0.40;0.40;;;15.90;58.00;;;;;;20740;6778;117312;-77
2023/10/21 01:21:43;;;;;;;0.83;0.70;;;15.50;58.70;;;;;;20730;6778;117433;-78
2023/10/21 01:24:19;;;;;;;0.60;0.60;;;15.20;59.40;;;;;;20531;6778;305619;-78
2023/10/21 01:26:54;;;;;;;0.30;0.30;;;15.30;59.10;;;;;;20637;6778;117500;-78
2023/10/21 01:29:30;;;;;;;0.77;0.47;;;15.20;59.20;;;;;;20726;6778;120216;-77
2023/10/21 01:32:09;;;;;;;0.68;0.62;;;15.10;59.50;;;;;;20534;6778;305037;-78
2023/10/21 01:34:42;;;;;;;0.73;0.40;;;15.00;59.70;;;;;;20742;6778;121298;-78
2023/10/21 01:37:20;;;;;;;0.60;0.60;;;15.00;59.70;;;;;;20375;6778;279045;-78
2023/10/21 01:39:55;;;;;;;0.93;0.60;;;15.10;59.30;;;;;;20508;6778;308723;-77
2023/10/21 01:42:30;;;;;;;0.50;0.50;;;15.30;58.50;;;;;;20517;6778;305681;-77
2023/10/21 01:45:07;;;;;;;1.00;0.60;;;15.60;57.20;;;;;;20525;6778;305670;-77
2023/10/21 01:47:42;;;;;;;1.20;0.50;;;15.70;57.30;;;;;;20291;6848;438269;-78
2023/10/21 01:50:18;;;;;;;0.80;0.63;;;15.70;56.70;;;;;;20476;6792;310922;-77
2023/10/21 01:52:54;;;;;;;1.63;0.60;;;15.80;56.50;;;;;;20736;6777;117049;-77
2023/10/21 01:55:29;;;;;;;0.60;0.60;;;15.50;57.20;;;;;;20660;6792;117727;-78
2023/10/21 01:58:05;;;;;;;0.40;0.40;;;15.10;58.10;;;;;;20693;6792;117930;-77
2023/10/21 02:00:40;;;;;;;0.40;0.40;;;14.80;59.00;;;;;;20687;6793;117196;-77
2023/10/21 02:03:16;;;;;;;0.60;0.60;;;14.60;60.50;;;;;;20633;6811;117212;-77
2023/10/21 02:05:52;;;;;;;0.70;0.70;;;14.40;60.50;;;;;;20472;6776;279197;-77
2023/10/21 02:08:27;;;;;;;0.63;0.60;;;14.60;59.70;;;;;;20582;6761;306497;-77
2023/10/21 02:11:03;;;;;;;0.53;0.50;;;15.00;58.90;;;;;;20753;6776;116587;-77
2023/10/21 02:13:38;;;;;;;0.50;0.50;;;15.00;59.10;;;;;;20464;6793;276513;-77
2023/10/21 02:16:15;;;;;;;0.50;0.50;;;15.10;58.60;;;;;;20681;6778;118561;-77
2023/10/21 02:18:51;;;;;;;0.50;0.50;;;14.70;59.60;;;;;;20744;6778;123143;-77
2023/10/21 02:21:27;;;;;;;2.63;0.57;;;14.70;59.60;;;;;;20724;6778;117582;-77
2023/10/21 02:24:03;;;;;;;0.50;0.40;;;14.50;60.20;;;;;;20742;6778;117506;-77
2023/10/21 02:26:40;;;;;;;1.25;0.60;;;14.40;60.80;;;;;;20400;6778;307145;-78
2023/10/21 02:29:15;;;;;;;1.33;0.30;;;14.60;60.00;;;;;;20686;6793;117314;-77
2023/10/21 02:31:50;;;;;;;0.33;0.33;;;14.60;60.10;;;;;;20673;6792;117228;-77
2023/10/21 02:34:26;;;;;;;0.40;0.40;;;14.50;60.60;;;;;;20526;6778;279914;-77
2023/10/21 02:37:02;;;;;;;0.90;0.40;;;14.70;59.60;;;;;;20356;6793;282792;-77
2023/10/21 02:39:37;;;;;;;1.63;0.40;;;15.10;58.60;;;;;;20460;6793;306399;-77
2023/10/21 02:42:13;;;;;;;1.30;0.40;;;15.40;57.70;;;;;;20648;6807;117408;-77
2023/10/21 02:44:48;;;;;;;0.23;0.23;;;15.30;58.10;;;;;;20639;6812;117875;-76
2023/10/21 02:47:27;;;;;;;0.50;0.40;;;15.00;58.90;;;;;;20401;6776;308217;-76
2023/10/21 02:49:59;;;;;;;0.60;0.30;;;15.10;58.10;;;;;;20435;6808;296997;-77
2023/10/21 02:52:36;;;;;;;0.50;0.40;;;15.30;57.30;;;;;;20527;6778;337396;-77
2023/10/21 02:55:11;;;;;;;0.37;0.37;;;15.60;56.60;;;;;;20529;6778;278045;-77
2023/10/21 02:57:46;;;;;;;0.80;0.40;;;15.70;56.00;;;;;;20342;6834;312842;-77
2023/10/21 03:00:22;;;;;;;0.30;0.30;;;15.90;55.70;;;;;;20697;6792;120952;-77
2023/10/21 03:02:57;;;;;;;0.30;0.30;;;15.70;56.40;;;;;;20490;6792;277163;-77
2023/10/21 03:05:34;;;;;;;0.70;0.30;;;15.80;55.60;;;;;;20444;6792;315381;-77
2023/10/21 03:08:09;;;;;;;0.67;0.30;;;15.80;55.60;;;;;;20753;6778;117057;-77
2023/10/21 03:10:45;;;;;;;0.20;0.20;;;15.30;57.20;;;;;;20744;6778;117228;-77
2023/10/21 03:13:21;;;;;;;0.33;0.30;;;15.30;57.20;;;;;;20530;6778;311699;-77
2023/10/21 03:15:57;;;;;;;0.20;0.20;;;15.30;56.70;;;;;;20660;6778;118194;-77
2023/10/21 03:18:32;;;;;;;0.20;0.20;;;15.30;57.40;;;;;;20735;6778;117277;-77
2023/10/21 03:21:09;;;;;;;0.20;0.20;;;15.20;57.10;;;;;;20525;6778;277557;-77
2023/10/21 03:23:44;;;;;;;0.30;0.30;;;15.20;57.10;;;;;;20701;6778;119126;-77
2023/10/21 03:26:21;;;;;;;0.50;0.30;;;15.20;57.60;;;;;;20407;6778;342454;-80
2023/10/21 03:28:56;;;;;;;0.40;0.30;;;15.40;56.70;;;;;;20482;6778;307857;-77
2023/10/21 03:31:31;;;;;;;0.30;0.30;;;15.70;56.00;;;;;;20667;6778;117221;-77
2023/10/21 03:34:07;;;;;;;0.20;0.20;;;15.60;56.50;;;;;;20726;6778;117466;-77
2023/10/21 03:36:42;;;;;;;0.47;0.33;;;15.40;57.30;;;;;;20637;6778;117640;-77
2023/10/21 03:39:18;;;;;;;0.20;0.17;;;15.30;56.80;;;;;;20534;6778;280870;-77
2023/10/21 03:41:54;;;;;;;0.30;0.30;;;15.30;56.80;;;;;;20517;6777;288142;-77
2023/10/21 03:44:30;;;;;;;0.30;0.30;;;15.60;56.00;;;;;;20533;6778;277846;-77
2023/10/21 03:47:05;;;;;;;0.47;0.30;;;15.90;55.30;;;;;;20409;6778;279619;-77
2023/10/21 03:49:41;;;;;;;0.20;0.20;;;16.10;54.70;;;;;;20521;6778;311945;-77
2023/10/21 03:52:16;;;;;;;0.20;0.20;;;16.20;54.30;;;;;;20749;6778;117665;-77
2023/10/21 03:54:52;;;;;;;0.40;0.40;;;16.00;55.10;;;;;;20745;6778;120020;-77
2023/10/21 03:57:28;;;;;;;0.90;0.30;;;15.60;56.00;;;;;;20367;6778;278446;-77
2023/10/21 04:00:05;;;;;;;0.27;0.20;;;15.70;55.70;;;;;;20751;6778;117288;-77
2023/10/21 04:02:40;;;;;;;0.20;0.20;;;15.60;56.20;;;;;;20747;6778;117109;-77
2023/10/21 04:05:17;;;;;;;0.40;0.30;;;15.40;56.90;;;;;;20532;6778;282377;-77
2023/10/21 04:07:51;;;;;;;0.40;0.20;;;15.50;56.30;;;;;;20470;6792;306141;-77
2023/10/21 04:10:27;;;;;;;0.23;0.23;;;15.80;55.80;;;;;;20646;6809;117687;-77
2023/10/21 04:13:03;;;;;;;0.22;0.22;;;15.70;56.30;;;;;;20472;6810;281382;-77
2023/10/21 04:15:39;;;;;;;0.27;0.27;;;15.60;56.80;;;;;;20749;6761;122869;-77
2023/10/21 04:18:14;;;;;;;0.43;0.27;;;15.60;56.70;;;;;;20800;6761;117793;-77
2023/10/21 04:20:50;;;;;;;1.10;0.40;;;15.40;57.50;;;;;;20748;6776;117205;-77
2023/10/21 04:23:26;;;;;;;0.30;0.30;;;15.30;57.50;;;;;;20513;6776;311304;-77
2023/10/21 04:26:03;;;;;;;0.30;0.30;;;15.20;57.40;;;;;;20742;6761;117654;-79
2023/10/21 04:28:39;;;;;;;0.43;0.43;;;15.20;57.70;;;;;;20580;6762;337755;-77
2023/10/21 04:31:18;;;;;;;0.70;0.30;;;15.60;56.60;;;;;;20585;6762;281519;-77
2023/10/21 04:33:51;;;;;;;0.43;0.30;;;15.60;56.60;;;;;;20568;6761;310219;-77
2023/10/21 04:36:27;;;;;;;0.30;0.30;;;15.50;56.30;;;;;;20777;6762;118374;-77
2023/10/21 04:39:03;;;;;;;1.53;0.43;;;15.50;56.20;;;;;;20799;6762;120885;-77
2023/10/21 04:41:39;;;;;;;0.33;0.33;;;15.10;57.00;;;;;;20782;6762;117763;-77
2023/10/21 04:44:17;;;;;;;0.68;0.50;;;14.80;57.80;;;;;;20589;6762;305550;-77
2023/10/21 04:46:50;;;;;;;0.37;0.37;;;14.80;58.40;;;;;;20694;6762;117528;-77
2023/10/21 04:49:26;;;;;;;0.30;0.30;;;14.80;57.90;;;;;;20788;6762;117673;-78
2023/10/21 04:52:01;;;;;;;0.40;0.40;;;14.60;58.60;;;;;;20795;6762;117304;-77
2023/10/21 04:54:39;;;;;;;0.70;0.30;;;14.60;58.60;;;;;;20587;6762;277462;-81
2023/10/21 04:57:16;;;;;;;0.93;0.23;;;14.60;58.60;;;;;;20672;6762;121917;-81
2023/10/21 04:59:54;;;;;;;1.50;0.40;;;14.60;58.80;;;;;;20797;6762;118989;-81
2023/10/21 05:02:26;;;;;;;0.32;0.30;;;14.50;59.30;;;;;;20596;6762;307238;-81
2023/10/21 05:05:02;;;;;;;1.20;0.30;;;14.70;58.60;;;;;;20762;6777;117304;-81
2023/10/21 05:07:37;;;;;;;0.50;0.30;;;14.70;58.90;;;;;;20355;6777;280434;-81
2023/10/21 05:10:13;;;;;;;0.70;0.27;;;14.90;58.20;;;;;;20593;6762;298019;-81
2023/10/21 05:12:48;;;;;;;0.80;0.40;;;15.20;57.40;;;;;;20538;6777;319313;-82
2023/10/21 05:15:24;;;;;;;0.20;0.20;;;15.50;56.60;;;;;;20500;6779;277800;-79
2023/10/21 05:18:00;;;;;;;0.20;0.20;;;15.70;56.10;;;;;;20756;6777;117938;-74
2023/10/21 05:20:36;;;;;;;0.20;0.20;;;15.60;56.60;;;;;;20750;6792;117147;-74
2023/10/21 05:23:11;;;;;;;0.93;0.35;;;15.30;57.40;;;;;;20542;6776;310718;-74
2023/10/21 05:25:49;;;;;;;0.40;0.20;;;15.30;56.90;;;;;;20491;6776;299499;-74
2023/10/21 05:28:24;;;;;;;1.50;0.20;;;15.50;57.00;;;;;;20740;6776;117297;-76
2023/10/21 05:31:04;;;;;;;1.47;0.30;;;15.50;56.90;;;;;;20650;6746;279163;-81
2023/10/21 05:33:40;;;;;;;0.60;0.30;;;15.50;56.60;;;;;;20696;6791;117605;-83
2023/10/21 05:36:15;;;;;;;0.27;0.27;;;15.40;57.10;;;;;;20745;6776;117402;-82
2023/10/21 05:38:50;;;;;;;0.40;0.20;;;15.10;57.80;;;;;;20607;6762;341065;-80
2023/10/21 05:41:26;;;;;;;0.30;0.30;;;15.30;57.40;;;;;;20803;6762;120461;-83
2023/10/21 05:44:01;;;;;;;0.47;0.30;;;15.20;57.70;;;;;;20824;6762;117368;-79
2023/10/21 05:46:38;;;;;;;1.35;0.40;;;15.10;57.70;;;;;;20468;6762;308760;-79
2023/10/21 05:49:13;;;;;;;0.70;0.20;;;15.10;57.70;;;;;;20606;6762;306274;-82
2023/10/21 05:51:49;;;;;;;0.37;0.30;;;15.40;57.10;;;;;;20755;6776;119083;-80
2023/10/21 05:54:25;;;;;;;0.33;0.30;;;15.10;58.10;;;;;;20762;6780;116787;-79
2023/10/21 05:57:02;;;;;;;0.20;0.20;;;15.10;58.10;;;;;;20677;6762;117808;-83
2023/10/21 05:59:38;;;;;;;0.57;0.20;;;14.80;58.70;;;;;;20679;6762;123617;-79
2023/10/21 06:02:14;;;;;;;0.20;0.20;;;14.70;59.30;;;;;;20775;6777;117743;-79
2023/10/21 06:04:50;;;;;;;0.20;0.20;;;14.70;58.90;;;;;;20545;6777;281255;-78
2023/10/21 06:07:26;;;;;;;0.30;0.20;;;14.70;58.90;;;;;;20384;6777;287565;-80
2023/10/21 06:10:01;;;;;;;1.37;0.20;;;15.10;58.10;;;;;;20780;6777;121124;-79
2023/10/21 06:12:39;;;;;;;0.50;0.30;;;15.10;58.20;;;;;;20537;6777;306738;-77
2023/10/21 06:15:12;;;;;;;0.60;0.50;;;15.20;57.60;;;;;;20592;6762;306025;-79
2023/10/21 06:17:48;;;;;;;0.30;0.30;;;15.40;56.80;;;;;;20559;6833;117528;-77
2023/10/21 06:20:24;;;;;;;0.60;0.30;;;15.40;57.40;;;;;;20806;6762;117165;-76
2023/10/21 06:22:59;;;;;;;0.37;0.37;;;15.20;58.20;;;;;;20752;6777;117253;-76
2023/10/21 06:25:35;;;;;;;1.07;0.30;;;14.90;58.80;;;;;;20726;6777;117755;-77
2023/10/21 06:28:11;;;;;;;0.80;0.40;;;14.70;59.80;;;;;;20812;6762;117225;-82
2023/10/21 06:30:47;;;;;;;0.30;0.30;;;14.70;59.80;;;;;;20604;6762;282633;-79
2023/10/21 06:33:22;;;;;;;0.87;0.50;;;15.00;58.40;;;;;;20810;6761;117407;-77
2023/10/21 06:35:58;;;;;;;0.40;0.40;;;15.10;58.70;;;;;;20533;6761;279573;-78
2023/10/21 06:38:33;;;;;;;0.90;0.40;;;15.30;57.70;;;;;;20813;6757;117563;-77
2023/10/21 06:41:10;;;;;;;0.20;0.20;;;15.30;57.90;;;;;;20608;6757;311259;-78
2023/10/21 06:43:45;;;;;;;0.33;0.33;;;15.70;56.00;;;;;;20576;6757;308029;-77
2023/10/21 06:46:21;;;;;;;0.70;0.30;;;15.70;56.00;;;;;;20713;6757;118615;-77
2023/10/21 06:48:58;;;;;;;0.23;0.23;;;15.60;56.50;;;;;;20814;6757;117253;-78
2023/10/21 06:51:33;;;;;;;0.80;0.30;;;15.40;57.20;;;;;;20582;6758;307645;-77
2023/10/21 06:54:09;;;;;;;2.67;0.40;;;15.40;56.50;;;;;;20807;6758;123263;-78
2023/10/21 06:56:44;;;;;;;0.30;0.30;;;15.30;57.00;;;;;;20491;6758;279390;-75
2023/10/21 06:59:20;;;;;;;0.30;0.30;;;15.40;56.40;;;;;;20757;6772;117198;-77
2023/10/21 07:01:56;;;;;;;1.40;0.30;;;15.30;56.90;;;;;;20755;6772;117664;-78
2023/10/21 07:04:33;;;;;;;0.40;0.30;;;15.10;57.60;;;;;;20600;6757;334151;-77
2023/10/21 07:07:10;;;;;;;1.08;0.47;;;15.50;56.30;;;;;;20469;6757;341878;-76
2023/10/21 07:09:59;;;;;;;;;;;;;;;;;;;;;
2023/10/21 07:12:25;;;;;;;0.40;0.40;;;15.20;57.50;;;;;;20808;6758;117552;-77
2023/10/21 07:15:03;;;;;;;0.60;0.50;;;15.30;57.60;;;;;;20602;6758;307581;-79
2023/10/21 07:17:36;;;;;;;0.97;0.30;;;15.40;56.60;;;;;;20582;6758;146810;-79
2023/10/21 07:20:13;;;;;;;0.40;0.30;;;15.40;56.90;;;;;;20599;6758;281371;-78
2023/10/21 07:22:49;;;;;;;0.37;0.37;;;15.50;56.60;;;;;;20590;6757;276525;-78
2023/10/21 07:25:23;;;;;;;0.30;0.30;;;15.90;55.80;;;;;;20794;6757;121576;-76
2023/10/21 07:27:59;;;;;;;2.60;2.40;;;16.00;57.20;;;;;;20808;6758;117443;-77
2023/10/21 07:30:35;;;;;;;36.87;26.07;;;16.00;57.20;;;;;;20808;6758;117651;-77
2023/10/21 07:33:13;;;;;;;15.77;14.15;;;16.00;57.80;;;;;;20606;6758;323572;-76
2023/10/21 07:35:53;;;;;;;4.57;4.17;;;16.80;55.20;;;;;;20530;6758;309449;-77
2023/10/21 07:38:28;;;;;;;3.13;2.93;;;16.80;55.20;;;;;;20611;6758;278212;-77
2023/10/21 07:41:12;;;;;;;1.90;1.80;;;17.30;54.00;;;;;;20832;6758;117172;-78
2023/10/21 07:43:50;;;;;;;2.37;2.27;;;17.60;53.30;;;;;;20593;6758;308627;-77
2023/10/21 07:46:25;;;;;;;1.73;1.63;;;17.60;53.30;;;;;;20518;6757;310784;-76
2023/10/21 07:49:06;;;;;;;1.90;1.80;;;18.00;52.60;;;;;;20554;6757;339010;-83
2023/10/21 07:51:38;;;;;;;4.40;4.00;;;18.30;51.60;;;;;;20577;6757;277448;-75
2023/10/21 07:54:13;;;;;;;27.00;23.90;;;18.60;51.30;;;;;;20597;6757;307647;-75
2023/10/21 07:56:50;;;;;;;23.10;20.43;;;18.90;50.50;;;;;;20668;6757;118503;-77
2023/10/21 07:59:27;;;;;;;4.50;4.20;;;18.90;50.30;;;;;;20588;6757;306048;-76
2023/10/21 08:02:01;;;;;;;3.07;2.87;;;18.90;50.30;;;;;;20807;6757;117284;-75
2023/10/21 08:04:36;;;;;;;0.70;0.70;;;18.90;51.50;;;;;;20802;6758;117298;-76
2023/10/21 08:07:17;;;;;;;1.17;0.40;;;18.90;49.40;;;;;;20430;6758;284000;-78
2023/10/21 08:09:50;;;;;;;0.43;0.40;;;18.90;49.40;;;;;;20741;6758;123895;-76
2023/10/21 08:12:25;;;;;;;0.43;0.43;;;18.90;50.30;;;;;;20730;6758;123957;-76
2023/10/21 08:15:04;;;;;;;0.40;0.40;;;18.80;51.00;;;;;;20789;6758;117207;-78
2023/10/21 08:17:41;;;;;;;0.50;0.50;;;18.60;51.50;;;;;;20501;6758;119262;-78
2023/10/21 08:20:17;;;;;;;0.57;0.57;;;18.50;51.80;;;;;;20585;6758;277011;-77
2023/10/21 08:22:55;;;;;;;1.03;0.60;;;18.70;49.70;;;;;;20788;6758;117597;-79
2023/10/21 08:25:28;;;;;;;0.50;0.50;;;19.00;47.20;;;;;;20541;6758;281469;-76
2023/10/21 08:28:04;;;;;;;0.80;0.50;;;19.00;47.70;;;;;;20581;6758;282245;-77
2023/10/21 08:30:40;;;;;;;0.50;0.50;;;19.20;46.90;;;;;;20801;6758;117711;-75
2023/10/21 08:33:15;;;;;;;1.00;0.60;;;19.20;48.10;;;;;;20826;6758;117137;-77
2023/10/21 08:35:51;;;;;;;0.67;0.67;;;19.00;49.30;;;;;;20550;6758;283481;-84
2023/10/21 08:38:30;;;;;;;0.50;0.50;;;19.20;47.80;;;;;;20577;6758;311514;-81
2023/10/21 08:41:03;;;;;;;0.47;0.47;;;19.80;46.20;;;;;;20562;6758;277636;-80
2023/10/21 08:43:38;;;;;;;1.80;0.60;;;19.80;46.20;;;;;;20781;6758;117306;-78
2023/10/21 08:46:17;;;;;;;1.23;0.50;;;19.70;47.70;;;;;;20473;6758;117715;-76
2023/10/21 08:48:50;;;;;;;0.67;0.50;;;19.50;48.70;;;;;;20705;6758;117652;-76
2023/10/21 08:51:25;;;;;;;0.80;0.60;;;19.30;49.30;;;;;;20517;6758;311983;-77
2023/10/21 08:54:04;;;;;;;0.50;0.50;;;19.30;46.90;;;;;;20558;6758;307103;-77
2023/10/21 08:56:40;;;;;;;0.30;0.30;;;19.50;45.80;;;;;;20635;6772;117450;-77
2023/10/21 08:59:16;;;;;;;0.60;0.50;;;19.40;47.20;;;;;;20528;6772;306767;-77
2023/10/21 09:01:52;;;;;;;0.70;0.70;;;19.60;46.40;;;;;;20507;6772;306379;-78
2023/10/21 09:04:31;;;;;;;0.50;0.50;;;19.60;46.20;;;;;;20578;6757;289378;-77
2023/10/21 09:07:07;;;;;;;3.20;0.50;;;19.80;46.00;;;;;;20336;6787;310653;-77
2023/10/21 09:09:45;;;;;;;0.83;0.60;;;20.00;46.20;;;;;;20776;6757;118145;-77
2023/10/21 09:12:21;;;;;;;2.00;0.60;;;19.90;46.50;;;;;;20538;6757;324248;-80
2023/10/21 09:14:57;;;;;;;0.87;0.57;;;19.90;46.50;;;;;;20600;6758;280614;-82
2023/10/21 09:17:35;;;;;;;1.10;0.50;;;20.10;45.70;;;;;;20375;6758;311473;-77
2023/10/21 09:20:11;;;;;;;0.63;0.63;;;20.30;45.30;;;;;;20574;6758;278317;-76
2023/10/21 09:22:49;;;;;;;1.48;0.40;;;20.30;45.00;;;;;;20575;6758;321330;-76
2023/10/21 09:25:25;;;;;;;0.30;0.30;;;20.40;44.20;;;;;;20784;6758;120877;-76
2023/10/21 09:28:00;;;;;;;0.50;0.40;;;20.10;45.50;;;;;;20789;6757;117513;-76
2023/10/21 09:30:37;;;;;;;1.03;0.50;;;19.70;46.80;;;;;;20806;6758;117317;-78
2023/10/21 09:33:12;;;;;;;0.83;0.50;;;19.30;47.80;;;;;;20771;6814;123388;-74
2023/10/21 09:35:49;;;;;;;0.10;0.10;;;19.00;48.80;;;;;;20737;6758;120591;-74
2023/10/21 09:38:24;;;;;;;0.93;0.40;;;18.90;49.50;;;;;;20783;6758;119831;-77
2023/10/21 09:40:59;;;;;;;0.20;0.10;;;18.80;50.10;;;;;;20777;6758;117292;-77
2023/10/21 09:43:39;;;;;;;0.52;0.40;;;19.00;47.40;;;;;;20531;6771;306295;-76
2023/10/21 09:46:14;;;;;;;1.10;0.40;;;19.10;48.00;;;;;;20678;6771;117884;-76
2023/10/21 09:48:52;;;;;;;0.85;0.50;;;19.10;48.40;;;;;;20540;6771;296503;-77
2023/10/21 09:51:30;;;;;;;0.67;0.40;;;19.40;47.40;;;;;;20750;6758;117646;-77
2023/10/21 09:54:09;;;;;;;0.65;0.50;;;19.50;48.70;;;;;;20589;6772;277012;-79
2023/10/21 09:56:42;;;;;;;1.50;0.70;;;19.80;47.00;;;;;;20416;6790;314584;-76
2023/10/21 09:59:17;;;;;;;0.80;0.60;;;20.20;45.50;;;;;;20817;6744;119747;-76
2023/10/21 10:01:55;;;;;;;0.50;0.40;;;20.00;47.40;;;;;;20760;6743;117693;-79
2023/10/21 10:04:29;;;;;;;1.00;0.60;;;20.00;47.30;;;;;;20600;6758;305596;-75
2023/10/21 10:07:09;;;;;;;3.03;0.70;;;20.20;45.50;;;;;;20739;6743;117794;-75
2023/10/21 10:09:44;;;;;;;2.93;0.70;;;20.20;47.00;;;;;;20786;6758;117052;-75
2023/10/21 10:12:23;;;;;;;1.33;1.23;;;20.10;48.00;;;;;;20557;6772;282358;-76
2023/10/21 10:14:58;;;;;;;1.27;0.93;;;20.30;44.70;;;;;;20592;6758;277484;-75
2023/10/21 10:17:48;;;;;;;1.40;0.60;;;21.00;44.80;;;;;;20325;6787;310449;-75
2023/10/21 10:20:27;;;;;;;1.33;0.60;;;21.00;44.70;;;;;;20815;6772;117140;-76
2023/10/21 10:23:08;;;;;;;0.60;0.40;;;21.10;45.90;;;;;;20811;6757;119732;-77
2023/10/21 10:25:44;;;;;;;0.83;0.50;;;20.90;46.40;;;;;;20689;6829;118258;-75
2023/10/21 10:28:20;;;;;;;0.80;0.50;;;20.70;47.10;;;;;;20615;6758;306508;-75
2023/10/21 10:30:56;;;;;;;0.67;0.53;;;20.70;44.00;;;;;;20596;6758;281722;-75
2023/10/21 10:33:34;;;;;;;0.90;0.63;;;20.90;43.30;;;;;;20578;6758;307196;-74
2023/10/21 10:36:12;;;;;;;1.00;0.50;;;21.00;42.10;;;;;;20743;6758;120643;-74
2023/10/21 10:38:45;;;;;;;0.70;0.50;;;20.90;44.10;;;;;;20595;6758;307762;-74
2023/10/21 10:41:22;;;;;;;0.67;0.50;;;20.90;43.00;;;;;;20595;6758;288909;-74
2023/10/21 10:44:02;;;;;;;0.40;0.32;;;21.10;42.50;;;;;;20534;6773;324286;-74
2023/10/21 10:46:36;;;;;;;1.73;0.40;;;21.30;41.90;;;;;;20653;6773;120573;-73
2023/10/21 10:49:10;;;;;;;1.40;0.60;;;21.20;43.70;;;;;;20550;6773;310043;-76
2023/10/21 10:51:45;;;;;;;1.20;0.60;;;21.10;42.90;;;;;;20487;6787;308645;-74
2023/10/21 10:54:20;;;;;;;0.83;0.47;;;21.30;42.10;;;;;;20648;6808;118238;-75
2023/10/21 10:56:58;;;;;;;0.80;0.62;;;21.10;43.40;;;;;;20316;6817;311070;-75
2023/10/21 10:59:32;;;;;;;0.97;0.40;;;20.90;43.60;;;;;;20724;6778;117472;-76
2023/10/21 11:02:13;;;;;;;1.10;0.40;;;21.00;43.60;;;;;;20749;6774;117573;-75
2023/10/21 11:04:49;;;;;;;1.02;0.47;;;20.70;44.70;;;;;;20522;6773;306985;-76
2023/10/21 11:07:31;;;;;;;0.60;0.37;;;20.80;44.60;;;;;;20628;6773;117541;-76
2023/10/21 11:10:08;;;;;;;1.40;0.40;;;20.80;44.30;;;;;;20511;6786;307248;-75
2023/10/21 11:12:44;;;;;;;0.70;0.60;;;20.90;42.20;;;;;;20512;6786;302069;-75
2023/10/21 11:15:20;;;;;;;0.50;0.50;;;21.10;41.70;;;;;;20665;6801;116972;-76
2023/10/21 11:17:56;;;;;;;1.40;0.43;;;21.10;43.50;;;;;;20500;6788;307009;-78
2023/10/21 11:20:32;;;;;;;1.63;0.60;;;21.10;41.90;;;;;;20546;6788;279678;-76
2023/10/21 11:23:11;;;;;;;0.60;0.40;;;21.40;40.60;;;;;;20451;6818;336474;-74
2023/10/21 11:25:56;;;;;;;1.10;0.50;;;21.50;40.60;;;;;;20385;6822;309406;-75
2023/10/21 11:28:32;;;;;;;0.37;0.33;;;21.60;40.70;;;;;;20741;6791;118192;-74
2023/10/21 11:31:08;;;;;;;1.12;0.50;;;21.40;42.30;;;;;;20508;6787;310328;-76
2023/10/21 11:33:43;;;;;;;0.63;0.40;;;21.30;41.00;;;;;;20706;6787;120020;-76
2023/10/21 11:36:19;;;;;;;0.57;0.50;;;21.20;43.40;;;;;;20374;6817;285275;-76
2023/10/21 11:38:54;;;;;;;0.40;0.30;;;21.10;41.30;;;;;;20738;6788;119802;-76
2023/10/21 11:41:38;;;;;;;1.00;0.50;;;21.10;43.00;;;;;;20628;6817;122126;-78
2023/10/21 11:44:06;;;;;;;1.27;0.50;;;21.00;44.00;;;;;;20449;6817;309959;-77
2023/10/21 11:46:41;;;;;;;0.75;0.30;;;21.10;41.90;;;;;;20438;6788;338058;-76
2023/10/21 11:49:19;;;;;;;1.37;0.47;;;21.40;41.80;;;;;;20661;6817;118090;-76
2023/10/21 11:51:54;;;;;;;0.87;0.50;;;21.30;43.80;;;;;;20658;6802;117166;-77
2023/10/21 11:54:39;;;;;;;0.70;0.57;;;21.30;43.70;;;;;;20454;6802;309280;-74
2023/10/21 12:07:15;;;;;;;1.30;0.60;;;21.20;43.40;;;;;;19550;7162;126444;-77
2023/10/21 12:17:08;;;;;;;0.30;0.20;;;21.20;40.80;;;;;;20029;6916;119450;-76
2023/10/21 12:23:33;;;;;;;0.53;0.50;;;20.80;43.70;;;;;;19668;7142;122087;-77
2023/10/21 12:25:50;;;;;;;0.63;0.50;;;20.50;44.40;;;;;;19269;7249;320895;-78
2023/10/21 12:36:42;;;;;;;0.20;0.20;;;20.70;40.80;;;;;;20666;6684;116795;-77
2023/10/21 12:39:20;;;;;;;0.67;0.30;;;20.50;42.60;;;;;;20746;6773;117333;-78
2023/10/21 12:41:52;;;;;;;1.00;0.40;;;20.20;42.00;;;;;;20522;6768;306764;-77
2023/10/21 12:44:31;;;;;;;1.50;0.43;;;20.20;42.00;;;;;;20519;6768;308033;-78
2023/10/21 12:47:05;;;;;;;1.23;0.60;;;20.50;41.50;;;;;;20588;6783;118829;-82
2023/10/21 12:49:43;;;;;;;0.43;0.43;;;20.40;42.90;;;;;;20637;6790;117823;-80
2023/10/21 12:52:17;;;;;;;0.30;0.30;;;20.20;44.00;;;;;;20648;6805;117967;-80
2023/10/21 12:54:53;;;;;;;2.53;0.63;;;20.00;44.60;;;;;;20685;6792;123202;-80
2023/10/21 12:57:32;;;;;;;0.40;0.40;;;19.80;44.90;;;;;;20522;6792;117547;-78
2023/10/21 13:00:05;;;;;;;4.30;3.90;;;19.60;45.20;;;;;;20494;6773;307554;-79
2023/10/21 13:02:40;;;;;;;0.90;0.77;;;19.80;43.20;;;;;;20736;6773;118419;-79
2023/10/21 13:05:17;;;;;;;0.57;0.50;;;19.90;44.40;;;;;;20759;6773;118764;-79
2023/10/21 13:07:52;;;;;;;4.07;3.67;;;19.70;45.00;;;;;;20737;6773;117102;-78
2023/10/21 13:10:28;;;;;;;1.20;0.97;;;19.50;45.50;;;;;;20758;6773;117204;-78
2023/10/21 13:13:04;;;;;;;5.50;5.10;;;19.60;44.00;;;;;;20465;6787;311468;-78
2023/10/21 13:15:40;;;;;;;4.00;3.70;;;19.60;43.90;;;;;;20657;6787;119696;-78
2023/10/21 13:18:18;;;;;;;0.90;0.90;;;19.60;44.70;;;;;;20714;6787;117114;-77
2023/10/21 13:20:52;;;;;;;2.85;1.60;;;19.50;45.20;;;;;;20498;6787;307054;-77
2023/10/21 13:23:27;;;;;;;2.20;0.70;;;19.60;42.60;;;;;;20673;6787;117807;-78
2023/10/21 13:26:06;;;;;;;0.80;0.80;;;19.70;43.90;;;;;;20500;6787;280305;-77
2023/10/21 13:28:38;;;;;;;0.75;0.40;;;19.80;42.00;;;;;;20520;6773;330758;-77
2023/10/21 13:31:14;;;;;;;0.80;0.60;;;20.10;41.20;;;;;;20552;6773;278124;-77
2023/10/21 13:33:49;;;;;;;0.80;0.50;;;20.40;40.20;;;;;;20495;6773;341337;-77
2023/10/21 13:36:25;;;;;;;0.40;0.40;;;20.60;39.80;;;;;;20655;6773;118832;-76
2023/10/21 13:39:15;;;;;;;3.30;0.50;;;20.40;42.60;;;;;;20721;6773;117161;-80
2023/10/21 13:41:38;;;;;;;0.57;0.57;;;20.30;42.50;;;;;;20534;6773;291562;-76
2023/10/21 13:44:13;;;;;;;0.53;0.40;;;20.40;40.60;;;;;;20723;6772;118307;-76
2023/10/21 13:46:49;;;;;;;0.90;0.43;;;20.40;41.50;;;;;;20439;6772;309257;-77
2023/10/21 13:49:26;;;;;;;0.70;0.40;;;20.40;40.00;;;;;;20502;6772;277467;-78
2023/10/21 13:52:00;;;;;;;2.10;0.70;;;20.60;40.50;;;;;;20757;6773;117381;-76